MSC Barbara — HODU — position and weather

sailwx.info

Track history (hours):
 
Tides and Currents Weather Stations Pressure Air Temp Water Temp Dewpoint Dewpoint Depression Visibility Wind Speed Wind Dir Waves Ship Positions

MSC Barbara

Last reported at 2016-May-26 10:32 UTC. Time now 2016-May-26 10:44 UTC.
Position S 12°57' W 038°33'.

Length 512 m; draft 12 m.

Type: Ship. MMSI: 353775000.

Date/timePositionNaut miles runAvg speedWind from/ knotsBaromVisibWave heightAir tempDewpointWater temp
2016-May-26 10:32S 12°57' W 038°33'0 0.0
2016-May-26 09:32S 12°57' W 038°33'0 0.0
2016-May-26 08:31S 12°57' W 038°33'0 0.0
2016-May-26 07:31S 12°57' W 038°33'0 0.0
2016-May-26 06:33S 12°57' W 038°33'0 0.0
2016-May-26 05:33S 12°57' W 038°33'0 0.0
2016-May-26 04:29S 12°57' W 038°33'0 0.0
2016-May-26 03:32S 12°57' W 038°33'0 0.0
2016-May-26 02:32S 12°57' W 038°33'0 0.0
2016-May-26 01:33S 12°57' W 038°33'2 2.1
2016-May-26 00:33S 12°57' W 038°31'7 6.4
2016-May-25 23:28S 13°03' W 038°35'2 0.5
2016-May-25 20:33S 13°04' W 038°36'1111.3
2016-May-25 19:33S 13°15' W 038°34'  
2016-May-23 10:23S 24°04' W 045°58'1517.9
2016-May-23 09:34S 24°05' W 046°14'6 5.9
2016-May-23 08:33S 23°59' W 046°18'5 0.3
2016-May-22 12:21S 23°55' W 046°21'5 6.4
2016-May-22 11:33S 23°59' W 046°18'1211.7
2016-May-22 10:33S 24°11' W 046°21'3 2.3
2016-May-22 09:24S 24°13' W 046°19'0 0.0
2016-May-22 08:33S 24°13' W 046°19'0 0.0
2016-May-22 07:29S 24°13' W 046°19'0 0.0
2016-May-22 06:32S 24°13' W 046°19'0 0.0
2016-May-22 05:31S 24°13' W 046°19'0 0.0
2016-May-22 04:31S 24°13' W 046°19'0 0.0
2016-May-22 03:34S 24°13' W 046°19'0 0.0
2016-May-22 02:33S 24°13' W 046°19'0 0.0
2016-May-22 01:33S 24°13' W 046°19'0 0.0
2016-May-22 00:34S 24°13' W 046°19'0 0.0
2016-May-21 23:33S 24°13' W 046°19'1110.9
2016-May-21 22:33S 24°19' W 046°29'1716.7
2016-May-21 21:34S 24°34' W 046°37'1716.9
2016-May-21 20:34S 24°47' W 046°48'  
Track history (hours):
 
Tides and Currents Weather Stations Pressure Air Temp Water Temp Dewpoint Dewpoint Depression Visibility Wind Speed Wind Dir Waves Ship Positions

MSC Barbara

Last reported at 2016-May-26 10:32 UTC. Time now 2016-May-26 10:44 UTC.
Position S 12°57' W 038°33'.

Length 512 m; draft 12 m.

Type: Ship. MMSI: 353775000.

Date/timePositionNaut miles runAvg speedWind from/ knotsBaromVisibWave heightAir tempDewpointWater temp
2016-May-26 10:32S 12°57' W 038°33'0 0.0
2016-May-26 09:32S 12°57' W 038°33'0 0.0
2016-May-26 08:31S 12°57' W 038°33'0 0.0
2016-May-26 07:31S 12°57' W 038°33'0 0.0
2016-May-26 06:33S 12°57' W 038°33'0 0.0
2016-May-26 05:33S 12°57' W 038°33'0 0.0
2016-May-26 04:29S 12°57' W 038°33'0 0.0
2016-May-26 03:32S 12°57' W 038°33'0 0.0
2016-May-26 02:32S 12°57' W 038°33'0 0.0
2016-May-26 01:33S 12°57' W 038°33'2 2.1
2016-May-26 00:33S 12°57' W 038°31'7 6.4
2016-May-25 23:28S 13°03' W 038°35'2 0.5
2016-May-25 20:33S 13°04' W 038°36'1111.3
2016-May-25 19:33S 13°15' W 038°34'  
2016-May-23 10:23S 24°04' W 045°58'1517.9
2016-May-23 09:34S 24°05' W 046°14'6 5.9
2016-May-23 08:33S 23°59' W 046°18'5 0.3
2016-May-22 12:21S 23°55' W 046°21'5 6.4
2016-May-22 11:33S 23°59' W 046°18'1211.7
2016-May-22 10:33S 24°11' W 046°21'3 2.3
2016-May-22 09:24S 24°13' W 046°19'0 0.0
2016-May-22 08:33S 24°13' W 046°19'0 0.0
2016-May-22 07:29S 24°13' W 046°19'0 0.0
2016-May-22 06:32S 24°13' W 046°19'0 0.0
2016-May-22 05:31S 24°13' W 046°19'0 0.0
2016-May-22 04:31S 24°13' W 046°19'0 0.0
2016-May-22 03:34S 24°13' W 046°19'0 0.0
2016-May-22 02:33S 24°13' W 046°19'0 0.0
2016-May-22 01:33S 24°13' W 046°19'0 0.0
2016-May-22 00:34S 24°13' W 046°19'0 0.0
2016-May-21 23:33S 24°13' W 046°19'1110.9
2016-May-21 22:33S 24°19' W 046°29'1716.7
2016-May-21 21:34S 24°34' W 046°37'1716.9
2016-May-21 20:34S 24°47' W 046°48'  

Dump ship's entire track history